Time;durP1;ratioP1;P1;durP2;ratioP2;P2;SDS_P1;SDS_P2;PMS_P1;PMS_P2;Temp;Humidity;BMP_temperature;BMP_pressure;BME280_temperature;BME280_humidity;BME280_pressure;Samples;Min_cycle;Max_cycle;Signal;HPM_P1;HPM_P2
2023/07/27 00:00:09;;;;;;;11.23;4.93;;;;;;;;;;5031231;28;20119;-60
2023/07/27 00:02:35;;;;;;;9.35;4.60;;;;;;;;;;5047972;28;20034;-60
2023/07/27 00:05:02;;;;;;;8.90;4.53;;;;;;;;;;5046971;28;20035;-60
2023/07/27 00:07:28;;;;;;;8.50;4.30;;;;;;;;;;5048486;28;21042;-60
2023/07/27 00:09:54;;;;;;;7.93;4.30;;;;;;;;;;5049096;28;20353;-60
2023/07/27 00:12:21;;;;;;;9.02;3.95;;;;;;;;;;5049850;28;20471;-60
2023/07/27 00:14:48;;;;;;;18.17;5.40;;;;;;;;;;5048729;28;20059;-60
2023/07/27 00:17:14;;;;;;;8.52;4.68;;;;;;;;;;5049760;28;20028;-60
2023/07/27 00:19:40;;;;;;;8.43;4.25;;;;;;;;;;5046717;28;20615;-60
2023/07/27 00:22:06;;;;;;;9.27;4.07;;;;;;;;;;5047121;28;22123;-60
2023/07/27 00:24:33;;;;;;;8.27;4.13;;;;;;;;;;5049619;28;20626;-60
2023/07/27 00:26:59;;;;;;;6.70;3.95;;;;;;;;;;5049909;28;20024;-60
2023/07/27 00:29:25;;;;;;;6.70;4.05;;;;;;;;;;5049596;28;20021;-60
2023/07/27 00:31:51;;;;;;;7.88;4.15;;;;;;;;;;5048559;28;20041;-60
2023/07/27 00:34:18;;;;;;;12.40;4.80;;;;;;;;;;5048685;28;20036;-59
2023/07/27 00:36:44;;;;;;;9.13;4.97;;;;;;;;;;5048093;28;20043;-60
2023/07/27 00:39:11;;;;;;;8.73;5.35;;;;;;;;;;5048492;28;20105;-60
2023/07/27 00:41:40;;;;;;;10.95;5.13;;;;;;;;;;5048036;28;20036;-60
2023/07/27 00:44:06;;;;;;;7.18;4.00;;;;;;;;;;5030896;28;20085;-60
2023/07/27 00:46:32;;;;;;;7.65;3.95;;;;;;;;;;5048537;28;20447;-59
2023/07/27 00:48:58;;;;;;;9.68;4.72;;;;;;;;;;5048550;28;20062;-60
2023/07/27 00:51:24;;;;;;;11.20;4.45;;;;;;;;;;5047471;28;20744;-60
2023/07/27 00:53:50;;;;;;;9.23;4.55;;;;;;;;;;5048930;28;20028;-60
2023/07/27 00:56:17;;;;;;;9.65;4.78;;;;;;;;;;5049745;28;20842;-60
2023/07/27 00:58:44;;;;;;;9.77;4.72;;;;;;;;;;5052342;28;20062;-60
2023/07/27 01:01:11;;;;;;;8.38;4.00;;;;;;;;;;5052742;28;20024;-60
2023/07/27 01:03:37;;;;;;;8.77;4.38;;;;;;;;;;5051885;28;20037;-60
2023/07/27 01:06:04;;;;;;;8.57;4.95;;;;;;;;;;5051125;28;20040;-60
2023/07/27 01:08:31;;;;;;;9.95;5.03;;;;;;;;;;5051893;28;20037;-60
2023/07/27 01:11:11;;;;;;;9.23;4.53;;;;;;;;;;5051982;28;20028;-60
2023/07/27 01:13:41;;;;;;;10.25;4.72;;;;;;;;;;5052649;28;20672;-60
2023/07/27 01:16:17;;;;;;;7.95;4.53;;;;;;;;;;5052453;28;20398;-60
2023/07/27 01:18:50;;;;;;;7.85;4.82;;;;;;;;;;5052430;28;20159;-60
2023/07/27 01:21:35;;;;;;;9.27;4.38;;;;;;;;;;5052314;28;20036;-60
2023/07/27 01:24:01;;;;;;;22.95;6.72;;;;;;;;;;5049804;28;20063;-60
2023/07/27 01:26:45;;;;;;;8.52;4.50;;;;;;;;;;5050289;28;21296;-60
2023/07/27 01:29:28;;;;;;;9.15;4.93;;;;;;;;;;5051551;28;20238;-59
2023/07/27 01:31:55;;;;;;;8.38;4.65;;;;;;;;;;5049844;28;20042;-60
2023/07/27 01:34:27;;;;;;;10.15;5.03;;;;;;;;;;5050789;28;20775;-60
2023/07/27 01:36:57;;;;;;;8.65;5.07;;;;;;;;;;5048773;28;20622;-60
2023/07/27 01:39:25;;;;;;;9.95;4.82;;;;;;;;;;5050828;28;20051;-60
2023/07/27 01:41:51;;;;;;;9.30;4.85;;;;;;;;;;5050691;28;21182;-60
2023/07/27 01:44:18;;;;;;;9.30;5.28;;;;;;;;;;5050650;28;20889;-60
2023/07/27 01:46:45;;;;;;;9.27;4.63;;;;;;;;;;5051578;28;20055;-60
2023/07/27 01:49:12;;;;;;;8.75;4.72;;;;;;;;;;5052004;28;20613;-59
2023/07/27 01:51:39;;;;;;;9.48;5.13;;;;;;;;;;5052174;28;20036;-60
2023/07/27 01:54:06;;;;;;;9.13;5.03;;;;;;;;;;5051503;28;20125;-60
2023/07/27 01:56:33;;;;;;;8.73;4.78;;;;;;;;;;5051858;28;20041;-60
2023/07/27 01:58:59;;;;;;;11.02;4.90;;;;;;;;;;5052181;28;20040;-59
2023/07/27 02:01:25;;;;;;;7.97;4.35;;;;;;;;;;5051747;28;20043;-60
2023/07/27 02:03:51;;;;;;;7.60;4.15;;;;;;;;;;5051970;28;20040;-60
2023/07/27 02:06:18;;;;;;;10.93;5.15;;;;;;;;;;5050183;28;20107;-60
2023/07/27 02:08:44;;;;;;;8.80;4.93;;;;;;;;;;5049185;28;21110;-60
2023/07/27 02:11:10;;;;;;;6.88;4.45;;;;;;;;;;5049802;28;20025;-59
2023/07/27 02:13:36;;;;;;;8.40;4.05;;;;;;;;;;5051925;28;20020;-59
2023/07/27 02:16:13;;;;;;;7.18;4.60;;;;;;;;;;5049605;28;20024;-60
2023/07/27 02:18:40;;;;;;;9.52;4.97;;;;;;;;;;5051666;28;20041;-59
2023/07/27 02:21:06;;;;;;;8.13;4.57;;;;;;;;;;5049116;28;20035;-60
2023/07/27 02:23:33;;;;;;;7.97;4.75;;;;;;;;;;5048993;28;20470;-60
2023/07/27 02:25:59;;;;;;;8.27;5.07;;;;;;;;;;5050423;28;20521;-60
2023/07/27 02:28:28;;;;;;;8.50;4.38;;;;;;;;;;5051806;28;20102;-59
2023/07/27 02:30:55;;;;;;;10.05;4.90;;;;;;;;;;5052725;28;20099;-60
2023/07/27 02:33:21;;;;;;;6.97;3.85;;;;;;;;;;5052304;28;20143;-60
2023/07/27 02:35:47;;;;;;;7.85;4.28;;;;;;;;;;5032477;28;20037;-60
2023/07/27 02:38:13;;;;;;;8.77;4.65;;;;;;;;;;5052596;28;20037;-60
2023/07/27 02:40:39;;;;;;;6.65;3.80;;;;;;;;;;5038511;28;20041;-60
2023/07/27 02:43:05;;;;;;;12.68;5.13;;;;;;;;;;5052232;28;20067;-60
2023/07/27 02:45:34;;;;;;;8.27;4.32;;;;;;;;;;5053737;28;20079;-60
2023/07/27 02:48:00;;;;;;;8.43;4.45;;;;;;;;;;5051395;28;20020;-60
2023/07/27 02:50:27;;;;;;;9.38;4.78;;;;;;;;;;5033688;28;20024;-60
2023/07/27 02:52:53;;;;;;;12.88;5.03;;;;;;;;;;5052263;28;20040;-59
2023/07/27 02:55:19;;;;;;;9.32;4.65;;;;;;;;;;5051990;28;20976;-60
2023/07/27 02:57:45;;;;;;;8.60;4.20;;;;;;;;;;5052114;28;20028;-60
2023/07/27 03:00:12;;;;;;;8.45;4.43;;;;;;;;;;5052041;28;20033;-60
2023/07/27 03:02:38;;;;;;;8.63;4.68;;;;;;;;;;5051095;28;20038;-60
2023/07/27 03:05:05;;;;;;;7.93;4.07;;;;;;;;;;5051039;28;20040;-60
2023/07/27 03:07:31;;;;;;;9.90;5.03;;;;;;;;;;5050946;28;20035;-60
2023/07/27 03:09:57;;;;;;;7.75;4.35;;;;;;;;;;5052101;28;20067;-60
2023/07/27 03:12:23;;;;;;;9.05;4.85;;;;;;;;;;5052435;28;20047;-60
2023/07/27 03:14:49;;;;;;;7.97;4.68;;;;;;;;;;5053387;28;20119;-60
2023/07/27 03:17:15;;;;;;;8.68;4.90;;;;;;;;;;5050883;28;20054;-60
2023/07/27 03:19:41;;;;;;;10.00;4.65;;;;;;;;;;5050699;28;20037;-60
2023/07/27 03:22:07;;;;;;;6.70;4.10;;;;;;;;;;5049935;28;20160;-60
2023/07/27 03:24:34;;;;;;;8.30;4.80;;;;;;;;;;5051709;28;20036;-60
2023/07/27 03:27:00;;;;;;;7.50;4.35;;;;;;;;;;5050758;28;20103;-60
2023/07/27 03:29:26;;;;;;;9.02;5.20;;;;;;;;;;5051126;28;20028;-60
2023/07/27 03:31:52;;;;;;;7.97;4.45;;;;;;;;;;5033482;28;20039;-60
2023/07/27 03:34:18;;;;;;;10.23;4.93;;;;;;;;;;5049412;28;20044;-60
2023/07/27 03:36:45;;;;;;;7.90;4.82;;;;;;;;;;5052145;28;20043;-60
2023/07/27 03:39:11;;;;;;;8.75;4.68;;;;;;;;;;5051157;28;20117;-60
2023/07/27 03:41:37;;;;;;;8.23;5.00;;;;;;;;;;5052557;28;20039;-60
2023/07/27 03:44:03;;;;;;;10.13;4.88;;;;;;;;;;5052429;28;20036;-60
2023/07/27 03:46:29;;;;;;;8.95;4.75;;;;;;;;;;5049830;28;20722;-60
2023/07/27 03:48:56;;;;;;;8.10;4.70;;;;;;;;;;5049661;28;21918;-60
2023/07/27 03:51:22;;;;;;;8.65;4.38;;;;;;;;;;5051020;28;20036;-60
2023/07/27 03:53:48;;;;;;;9.68;5.07;;;;;;;;;;5051313;28;20044;-60
2023/07/27 03:56:14;;;;;;;9.55;5.55;;;;;;;;;;5051319;28;20036;-60
2023/07/27 03:58:40;;;;;;;8.43;4.90;;;;;;;;;;5049285;28;20032;-60
2023/07/27 04:01:06;;;;;;;9.93;5.45;;;;;;;;;;5051052;28;20048;-60
2023/07/27 04:03:32;;;;;;;8.60;5.15;;;;;;;;;;5050543;28;20122;-60
2023/07/27 04:05:58;;;;;;;8.80;5.03;;;;;;;;;;5050242;28;20033;-60
2023/07/27 04:08:24;;;;;;;8.25;5.25;;;;;;;;;;5051278;28;20107;-60
2023/07/27 04:10:51;;;;;;;10.48;5.07;;;;;;;;;;5050627;28;20102;-60
2023/07/27 04:13:17;;;;;;;10.15;5.07;;;;;;;;;;5050946;28;20044;-60
2023/07/27 04:15:43;;;;;;;8.88;5.43;;;;;;;;;;5052250;28;20040;-60
2023/07/27 04:18:09;;;;;;;12.30;5.07;;;;;;;;;;5051025;28;20153;-59
2023/07/27 04:20:35;;;;;;;9.00;5.32;;;;;;;;;;5049926;28;20038;-60
2023/07/27 04:23:01;;;;;;;10.32;5.45;;;;;;;;;;5049374;28;20036;-60
2023/07/27 04:25:27;;;;;;;10.20;5.68;;;;;;;;;;5050363;28;20033;-60
2023/07/27 04:27:53;;;;;;;10.52;5.50;;;;;;;;;;5049448;28;20035;-60
2023/07/27 04:30:20;;;;;;;11.25;5.15;;;;;;;;;;5051944;28;20040;-60
2023/07/27 04:32:46;;;;;;;9.05;5.60;;;;;;;;;;5052768;28;20555;-60
2023/07/27 04:35:12;;;;;;;10.75;5.82;;;;;;;;;;5054742;28;20046;-60
2023/07/27 04:37:38;;;;;;;10.52;6.38;;;;;;;;;;5052443;28;20036;-60
2023/07/27 04:40:04;;;;;;;11.88;6.43;;;;;;;;;;5054419;28;20077;-60
2023/07/27 04:42:30;;;;;;;10.43;5.63;;;;;;;;;;5054514;28;20085;-60
2023/07/27 04:44:56;;;;;;;10.48;6.38;;;;;;;;;;5056084;28;20045;-60
2023/07/27 04:47:22;;;;;;;11.15;6.20;;;;;;;;;;5055131;28;20029;-60
2023/07/27 04:49:48;;;;;;;12.23;6.72;;;;;;;;;;5053779;28;20478;-60
2023/07/27 04:52:14;;;;;;;13.88;6.47;;;;;;;;;;5054726;28;20470;-60
2023/07/27 04:54:41;;;;;;;13.30;7.25;;;;;;;;;;5052482;28;20618;-60
2023/07/27 04:57:07;;;;;;;10.57;7.00;;;;;;;;;;5053965;28;20048;-60
2023/07/27 04:59:33;;;;;;;10.68;7.40;;;;;;;;;;5050432;28;20036;-60
2023/07/27 05:01:59;;;;;;;12.43;7.63;;;;;;;;;;5053049;28;20049;-60
2023/07/27 05:04:25;;;;;;;16.20;8.23;;;;;;;;;;5054226;28;20039;-60
2023/07/27 05:06:51;;;;;;;10.63;7.07;;;;;;;;;;5052993;28;20032;-60
2023/07/27 05:09:17;;;;;;;13.15;7.70;;;;;;;;;;5054220;28;20044;-60
2023/07/27 05:11:43;;;;;;;11.85;7.32;;;;;;;;;;5052702;28;20803;-60
2023/07/27 05:14:09;;;;;;;16.67;7.63;;;;;;;;;;5053385;28;20044;-60
2023/07/27 05:16:35;;;;;;;11.43;7.28;;;;;;;;;;5054662;28;20036;-60
2023/07/27 05:19:01;;;;;;;10.73;6.70;;;;;;;;;;5053466;28;20510;-60
2023/07/27 05:21:27;;;;;;;11.68;6.22;;;;;;;;;;5053102;28;20040;-60
2023/07/27 05:23:53;;;;;;;11.13;7.15;;;;;;;;;;5053715;28;20037;-60
2023/07/27 05:26:19;;;;;;;11.90;6.93;;;;;;;;;;5054308;28;20029;-60
2023/07/27 05:28:45;;;;;;;12.60;7.47;;;;;;;;;;5053629;28;20464;-60
2023/07/27 05:31:14;;;;;;;8.85;6.13;;;;;;;;;;5053082;28;20585;-60
2023/07/27 05:33:40;;;;;;;8.75;5.93;;;;;;;;;;5054389;28;20040;-60
2023/07/27 05:36:07;;;;;;;9.40;6.10;;;;;;;;;;5053676;28;20040;-60
2023/07/27 05:38:33;;;;;;;10.75;6.80;;;;;;;;;;5053519;28;20147;-60
2023/07/27 05:41:00;;;;;;;13.43;7.43;;;;;;;;;;5051168;28;20557;-60
2023/07/27 05:43:26;;;;;;;11.68;6.75;;;;;;;;;;5051252;28;20086;-60
2023/07/27 05:45:52;;;;;;;11.50;5.72;;;;;;;;;;5053258;28;20171;-60
2023/07/27 05:48:18;;;;;;;11.27;6.35;;;;;;;;;;5051679;28;20044;-60
2023/07/27 05:50:44;;;;;;;11.70;6.07;;;;;;;;;;5052113;28;20035;-60
2023/07/27 05:53:10;;;;;;;9.82;5.68;;;;;;;;;;5052124;28;21523;-60
2023/07/27 05:55:36;;;;;;;10.65;6.55;;;;;;;;;;5051830;28;20215;-60
2023/07/27 05:58:02;;;;;;;11.35;6.18;;;;;;;;;;5054915;28;20051;-60
2023/07/27 06:00:28;;;;;;;9.65;6.30;;;;;;;;;;5053338;28;20031;-60
2023/07/27 06:02:54;;;;;;;9.52;6.10;;;;;;;;;;5053410;28;20077;-60
2023/07/27 06:05:20;;;;;;;10.88;6.32;;;;;;;;;;5053510;28;20032;-60
2023/07/27 06:07:46;;;;;;;10.35;6.00;;;;;;;;;;5053741;28;20036;-60
2023/07/27 06:10:13;;;;;;;8.82;5.03;;;;;;;;;;5034845;28;20569;-60
2023/07/27 06:12:39;;;;;;;10.05;5.90;;;;;;;;;;5054168;28;20658;-60
2023/07/27 06:15:05;;;;;;;12.25;6.00;;;;;;;;;;5053810;28;20040;-60
2023/07/27 06:17:31;;;;;;;9.80;6.05;;;;;;;;;;5054952;28;20064;-60
2023/07/27 06:19:57;;;;;;;9.52;5.47;;;;;;;;;;5052156;28;20032;-60
2023/07/27 06:22:23;;;;;;;9.10;5.60;;;;;;;;;;5052690;28;20487;-60
2023/07/27 06:24:49;;;;;;;9.98;5.80;;;;;;;;;;5053060;28;20032;-60
2023/07/27 06:27:16;;;;;;;9.15;5.53;;;;;;;;;;5051710;28;20024;-60
2023/07/27 06:29:42;;;;;;;8.68;5.20;;;;;;;;;;5052496;28;21779;-60
2023/07/27 06:32:11;;;;;;;12.10;6.25;;;;;;;;;;5033857;28;20036;-60
2023/07/27 06:34:37;;;;;;;10.10;5.00;;;;;;;;;;5036390;28;20031;-60
2023/07/27 06:37:03;;;;;;;10.18;5.40;;;;;;;;;;5051196;28;20094;-60
2023/07/27 06:39:29;;;;;;;9.35;5.90;;;;;;;;;;5051351;28;20908;-60
2023/07/27 06:41:55;;;;;;;12.27;5.28;;;;;;;;;;5051449;28;22027;-60
2023/07/27 06:44:22;;;;;;;7.82;5.15;;;;;;;;;;5052468;28;20050;-60
2023/07/27 06:46:48;;;;;;;9.05;5.28;;;;;;;;;;5052349;28;20048;-60
2023/07/27 06:49:14;;;;;;;7.45;4.88;;;;;;;;;;5050318;28;20040;-60
2023/07/27 06:51:40;;;;;;;8.38;4.30;;;;;;;;;;5049561;28;20033;-60
2023/07/27 06:54:06;;;;;;;10.65;5.07;;;;;;;;;;5052862;28;20155;-60
2023/07/27 06:56:32;;;;;;;9.50;5.25;;;;;;;;;;5052137;28;20122;-60
2023/07/27 06:58:58;;;;;;;8.98;5.35;;;;;;;;;;5051299;28;20107;-60
2023/07/27 07:01:26;;;;;;;10.25;5.63;;;;;;;;;;5051771;28;20036;-60
2023/07/27 07:03:53;;;;;;;9.18;5.05;;;;;;;;;;5052100;28;20039;-60
2023/07/27 07:06:19;;;;;;;11.27;5.55;;;;;;;;;;5050353;28;20211;-60
2023/07/27 07:08:45;;;;;;;9.52;5.07;;;;;;;;;;5051653;28;20021;-60
2023/07/27 07:11:14;;;;;;;7.82;4.32;;;;;;;;;;5051360;28;20967;-60
2023/07/27 07:13:40;;;;;;;7.57;4.63;;;;;;;;;;5051386;28;20036;-60
2023/07/27 07:16:06;;;;;;;7.50;4.90;;;;;;;;;;5035006;28;20091;-60
2023/07/27 07:18:33;;;;;;;8.50;4.80;;;;;;;;;;5051678;28;20555;-60
2023/07/27 07:20:59;;;;;;;7.55;4.35;;;;;;;;;;5048876;28;20043;-60
2023/07/27 07:23:25;;;;;;;8.70;4.88;;;;;;;;;;5050619;28;20523;-60
2023/07/27 07:25:51;;;;;;;7.68;4.32;;;;;;;;;;5051613;28;21834;-60
2023/07/27 07:28:18;;;;;;;7.90;4.32;;;;;;;;;;5051858;28;20029;-60
2023/07/27 07:30:44;;;;;;;5.93;3.63;;;;;;;;;;5052348;28;20652;-60
2023/07/27 07:33:10;;;;;;;9.10;4.63;;;;;;;;;;5050925;28;20029;-60
2023/07/27 07:35:39;;;;;;;6.82;3.70;;;;;;;;;;5050579;28;20033;-60
2023/07/27 07:38:05;;;;;;;7.05;3.90;;;;;;;;;;5049091;28;20075;-60
2023/07/27 07:40:32;;;;;;;7.13;3.83;;;;;;;;;;5050594;28;20028;-60
2023/07/27 07:43:01;;;;;;;6.25;3.70;;;;;;;;;;5050188;28;20154;-60
2023/07/27 07:45:27;;;;;;;6.15;3.60;;;;;;;;;;5046828;28;20057;-60
2023/07/27 07:47:53;;;;;;;10.63;3.45;;;;;;;;;;5048377;28;20186;-60
2023/07/27 07:50:19;;;;;;;7.25;3.78;;;;;;;;;;5049126;28;20032;-60
2023/07/27 07:52:46;;;;;;;6.65;3.78;;;;;;;;;;5050207;28;20043;-60
2023/07/27 07:55:12;;;;;;;6.85;4.10;;;;;;;;;;5049576;28;20529;-59
2023/07/27 07:57:38;;;;;;;7.00;3.83;;;;;;;;;;5051645;28;20076;-60
2023/07/27 08:00:04;;;;;;;6.25;3.35;;;;;;;;;;5050439;28;20043;-60
2023/07/27 08:02:30;;;;;;;6.63;3.40;;;;;;;;;;5051685;28;20032;-60
2023/07/27 08:04:56;;;;;;;6.30;3.45;;;;;;;;;;5050592;28;20036;-60
2023/07/27 08:07:22;;;;;;;6.38;3.35;;;;;;;;;;5050359;28;20048;-60
2023/07/27 08:09:49;;;;;;;7.20;3.42;;;;;;;;;;5051058;28;20029;-60
2023/07/27 08:12:15;;;;;;;6.60;3.25;;;;;;;;;;5049587;28;20028;-60
2023/07/27 08:14:41;;;;;;;4.78;2.65;;;;;;;;;;5052374;28;20344;-60
2023/07/27 08:17:08;;;;;;;4.93;3.00;;;;;;;;;;5050723;28;20033;-60
2023/07/27 08:19:34;;;;;;;4.68;2.83;;;;;;;;;;5051518;28;20028;-60
2023/07/27 08:22:00;;;;;;;5.70;2.75;;;;;;;;;;5050938;28;20039;-60
2023/07/27 08:24:26;;;;;;;5.95;2.38;;;;;;;;;;5050184;28;20062;-60
2023/07/27 08:26:53;;;;;;;4.72;2.13;;;;;;;;;;5050813;28;20159;-60
2023/07/27 08:29:19;;;;;;;4.97;2.20;;;;;;;;;;5049933;28;20036;-60
2023/07/27 08:31:45;;;;;;;4.47;1.90;;;;;;;;;;5051243;28;20028;-60
2023/07/27 08:34:11;;;;;;;3.40;2.00;;;;;;;;;;5050315;28;20036;-60
2023/07/27 08:36:37;;;;;;;3.58;2.00;;;;;;;;;;5052884;28;21815;-60
2023/07/27 08:39:04;;;;;;;5.43;2.20;;;;;;;;;;5048796;28;20036;-60
2023/07/27 08:41:30;;;;;;;3.75;1.90;;;;;;;;;;5051459;28;20406;-60
2023/07/27 08:43:57;;;;;;;4.20;2.25;;;;;;;;;;5051614;28;20036;-60
2023/07/27 08:46:24;;;;;;;3.80;2.22;;;;;;;;;;5050396;28;20441;-60
2023/07/27 08:48:50;;;;;;;4.95;2.10;;;;;;;;;;5049928;28;20067;-60
2023/07/27 08:51:16;;;;;;;4.10;2.20;;;;;;;;;;5033000;28;20037;-60
2023/07/27 08:53:42;;;;;;;4.78;1.98;;;;;;;;;;5052276;28;20040;-59
2023/07/27 08:56:08;;;;;;;5.43;2.30;;;;;;;;;;5056099;28;20036;-60
2023/07/27 08:58:34;;;;;;;5.30;2.45;;;;;;;;;;5054177;28;20653;-60
2023/07/27 09:01:01;;;;;;;4.40;2.25;;;;;;;;;;5054997;28;20146;-60
2023/07/27 09:03:27;;;;;;;4.03;2.08;;;;;;;;;;5053286;28;20518;-60
2023/07/27 09:06:00;;;;;;;6.50;2.28;;;;;;;;;;5054879;28;20610;-60
2023/07/27 09:08:29;;;;;;;4.00;2.30;;;;;;;;;;5055358;28;20039;-60
2023/07/27 09:11:04;;;;;;;3.85;2.10;;;;;;;;;;5056322;28;20489;-60
2023/07/27 09:13:33;;;;;;;5.82;2.38;;;;;;;;;;5055736;28;20039;-60
2023/07/27 09:16:01;;;;;;;3.92;2.03;;;;;;;;;;5055553;28;20046;-60
2023/07/27 09:18:28;;;;;;;4.22;2.15;;;;;;;;;;5057889;28;20031;-60
2023/07/27 09:20:56;;;;;;;4.95;1.98;;;;;;;;;;5060080;28;20032;-60
2023/07/27 09:23:23;;;;;;;5.68;2.30;;;;;;;;;;5041522;28;20039;-60
2023/07/27 09:25:52;;;;;;;3.20;1.70;;;;;;;;;;5044486;28;20037;-60
2023/07/27 09:28:24;;;;;;;3.10;1.55;;;;;;;;;;5059890;28;20075;-60
2023/07/27 09:30:50;;;;;;;2.95;1.50;;;;;;;;;;5059646;28;20029;-60
2023/07/27 09:33:16;;;;;;;3.53;1.77;;;;;;;;;;5057819;28;20024;-60
2023/07/27 09:35:43;;;;;;;3.22;1.90;;;;;;;;;;5058848;28;20032;-60
2023/07/27 09:38:09;;;;;;;3.58;1.90;;;;;;;;;;5059959;28;20028;-60
2023/07/27 09:40:36;;;;;;;3.20;1.80;;;;;;;;;;5059136;28;20037;-60
2023/07/27 09:43:09;;;;;;;3.40;1.85;;;;;;;;;;5059915;28;20091;-60
2023/07/27 09:45:38;;;;;;;3.00;1.63;;;;;;;;;;5059322;28;20051;-60
2023/07/27 09:48:04;;;;;;;3.33;1.88;;;;;;;;;;5057737;28;20501;-61
2023/07/27 09:50:30;;;;;;;3.17;1.80;;;;;;;;;;5058356;28;20035;-60
2023/07/27 09:52:57;;;;;;;2.95;1.58;;;;;;;;;;5058448;28;20037;-60
2023/07/27 09:55:25;;;;;;;1.92;1.15;;;;;;;;;;5059242;28;20551;-60
2023/07/27 09:57:52;;;;;;;2.80;1.20;;;;;;;;;;5059368;28;20036;-60
2023/07/27 10:00:19;;;;;;;2.05;1.17;;;;;;;;;;5058357;28;20036;-60
2023/07/27 10:02:45;;;;;;;2.38;1.17;;;;;;;;;;5059749;28;20863;-60
2023/07/27 10:05:11;;;;;;;1.70;1.10;;;;;;;;;;5059397;28;20035;-60
2023/07/27 10:07:37;;;;;;;2.22;1.10;;;;;;;;;;5058945;28;20037;-60
2023/07/27 10:10:22;;;;;;;2.42;1.35;;;;;;;;;;5059339;28;20063;-60
2023/07/27 10:12:48;;;;;;;2.58;1.30;;;;;;;;;;5059749;28;20032;-60
2023/07/27 10:15:27;;;;;;;2.75;1.00;;;;;;;;;;5057514;28;20043;-60
2023/07/27 10:18:03;;;;;;;1.75;1.10;;;;;;;;;;5041020;28;20024;-60
2023/07/27 10:20:31;;;;;;;1.95;1.10;;;;;;;;;;5058877;28;22097;-60
2023/07/27 10:23:20;;;;;;;1.58;1.15;;;;;;;;;;5044080;28;20539;-60
2023/07/27 10:25:55;;;;;;;1.85;1.33;;;;;;;;;;5059286;28;20097;-60
2023/07/27 10:28:51;;;;;;;1.95;1.20;;;;;;;;;;5058013;28;20124;-60
2023/07/27 10:31:20;;;;;;;2.15;1.20;;;;;;;;;;5035033;28;20491;-60
2023/07/27 10:33:53;;;;;;;1.35;1.05;;;;;;;;;;5058394;28;20078;-60
2023/07/27 10:36:20;;;;;;;2.15;1.30;;;;;;;;;;5057907;28;20024;-60
2023/07/27 10:38:53;;;;;;;2.35;1.40;;;;;;;;;;5058373;28;20516;-60
2023/07/27 10:41:21;;;;;;;2.15;1.45;;;;;;;;;;5058027;28;20028;-60
2023/07/27 10:44:06;;;;;;;3.55;1.50;;;;;;;;;;5057179;28;20035;-60
2023/07/27 10:46:32;;;;;;;2.28;1.48;;;;;;;;;;5058185;28;20431;-60
2023/07/27 10:48:58;;;;;;;1.80;1.17;;;;;;;;;;5059294;28;20052;-60
2023/07/27 10:51:28;;;;;;;1.65;1.20;;;;;;;;;;5058199;28;20024;-60
2023/07/27 10:53:54;;;;;;;2.97;1.80;;;;;;;;;;5059501;28;20036;-60
2023/07/27 10:56:21;;;;;;;2.85;1.75;;;;;;;;;;5058232;28;20051;-60
2023/07/27 10:58:48;;;;;;;2.88;1.88;;;;;;;;;;5058335;28;20431;-60
2023/07/27 11:01:14;;;;;;;4.60;2.20;;;;;;;;;;5057840;28;20127;-60
2023/07/27 11:03:41;;;;;;;3.08;2.05;;;;;;;;;;5056335;28;20063;-60
2023/07/27 11:06:07;;;;;;;3.40;2.00;;;;;;;;;;5058350;28;20739;-60
2023/07/27 11:08:38;;;;;;;3.40;2.35;;;;;;;;;;5057331;28;20028;-60
2023/07/27 11:11:21;;;;;;;3.53;2.17;;;;;;;;;;5039916;28;20024;-60
2023/07/27 11:13:47;;;;;;;3.75;2.50;;;;;;;;;;5042892;28;20029;-60
2023/07/27 11:16:14;;;;;;;3.72;2.42;;;;;;;;;;5057704;28;20078;-60
2023/07/27 11:18:43;;;;;;;4.22;2.45;;;;;;;;;;5057478;28;20935;-60
2023/07/27 11:21:09;;;;;;;5.47;3.00;;;;;;;;;;5040049;28;20043;-60
2023/07/27 11:23:43;;;;;;;4.78;3.05;;;;;;;;;;5057552;28;21796;-60
2023/07/27 11:26:09;;;;;;;5.13;3.00;;;;;;;;;;5057256;28;20103;-60
2023/07/27 11:28:35;;;;;;;7.88;4.03;;;;;;;;;;5057848;28;20028;-61
2023/07/27 11:31:01;;;;;;;5.82;3.47;;;;;;;;;;5057721;28;20808;-60
2023/07/27 11:33:37;;;;;;;4.90;3.15;;;;;;;;;;5057144;28;20024;-60
2023/07/27 11:36:07;;;;;;;5.68;3.88;;;;;;;;;;5057471;28;20382;-61
2023/07/27 11:38:33;;;;;;;5.93;4.00;;;;;;;;;;5058285;28;20131;-61
2023/07/27 11:41:00;;;;;;;8.43;4.68;;;;;;;;;;5055051;28;20031;-61
2023/07/27 11:43:26;;;;;;;5.57;3.95;;;;;;;;;;5056459;28;20033;-61
2023/07/27 11:45:56;;;;;;;6.50;4.45;;;;;;;;;;5057676;28;20072;-61
2023/07/27 11:48:26;;;;;;;5.68;4.20;;;;;;;;;;5057093;28;20030;-60
2023/07/27 11:50:54;;;;;;;5.03;3.90;;;;;;;;;;5057002;28;20498;-61
2023/07/27 11:53:23;;;;;;;5.40;4.05;;;;;;;;;;5037755;28;20167;-60
2023/07/27 11:55:49;;;;;;;6.65;5.18;;;;;;;;;;5055096;28;21692;-60
2023/07/27 11:58:15;;;;;;;6.63;4.70;;;;;;;;;;5056427;28;20074;-60
2023/07/27 12:00:46;;;;;;;7.22;5.20;;;;;;;;;;5056095;28;20032;-60
2023/07/27 12:03:13;;;;;;;8.02;5.15;;;;;;;;;;5056406;28;20748;-60
2023/07/27 12:05:39;;;;;;;5.97;4.70;;;;;;;;;;5056036;28;20547;-60
2023/07/27 12:08:05;;;;;;;7.70;4.82;;;;;;;;;;5057402;28;20037;-60
2023/07/27 12:10:31;;;;;;;10.82;6.50;;;;;;;;;;5039425;28;20033;-60
2023/07/27 12:12:58;;;;;;;7.65;5.82;;;;;;;;;;5057208;28;20563;-61
2023/07/27 12:15:28;;;;;;;5.82;4.22;;;;;;;;;;5055263;28;21303;-60
2023/07/27 12:17:55;;;;;;;6.65;5.00;;;;;;;;;;5057398;28;20067;-60
2023/07/27 12:20:21;;;;;;;9.32;4.30;;;;;;;;;;5056987;28;20032;-60
2023/07/27 12:22:48;;;;;;;4.72;2.80;;;;;;;;;;5055960;28;20036;-61
2023/07/27 12:25:14;;;;;;;4.25;2.60;;;;;;;;;;5057658;28;20057;-60
2023/07/27 12:27:40;;;;;;;3.83;2.55;;;;;;;;;;5057115;28;20101;-61
2023/07/27 12:30:06;;;;;;;5.45;3.30;;;;;;;;;;5056989;28;20408;-60
2023/07/27 12:32:33;;;;;;;4.85;2.40;;;;;;;;;;5057535;28;20355;-60
2023/07/27 12:34:59;;;;;;;3.58;2.38;;;;;;;;;;5056957;28;20119;-61
2023/07/27 12:37:25;;;;;;;3.75;2.35;;;;;;;;;;5055186;28;20035;-60
2023/07/27 12:39:51;;;;;;;4.57;2.20;;;;;;;;;;5057094;28;20051;-61
2023/07/27 12:42:17;;;;;;;3.92;2.40;;;;;;;;;;5057319;28;20097;-60
2023/07/27 12:44:43;;;;;;;3.03;1.80;;;;;;;;;;5057127;28;20032;-61
2023/07/27 12:47:09;;;;;;;2.70;1.70;;;;;;;;;;5057381;28;20052;-60
2023/07/27 12:49:35;;;;;;;2.78;2.00;;;;;;;;;;5056890;28;20025;-61
2023/07/27 12:52:01;;;;;;;5.03;2.28;;;;;;;;;;5055815;28;20033;-60
2023/07/27 12:54:27;;;;;;;3.15;1.80;;;;;;;;;;5061534;28;20044;-60
2023/07/27 12:56:53;;;;;;;2.70;1.67;;;;;;;;;;5060339;28;20436;-60
2023/07/27 12:59:19;;;;;;;3.92;1.58;;;;;;;;;;5060718;28;20033;-60
2023/07/27 13:01:45;;;;;;;2.22;1.42;;;;;;;;;;5042996;28;20017;-60
2023/07/27 13:04:11;;;;;;;1.58;1.33;;;;;;;;;;5059310;28;20167;-61
2023/07/27 13:06:37;;;;;;;1.90;1.30;;;;;;;;;;5059588;28;20093;-60
2023/07/27 13:09:04;;;;;;;1.75;1.30;;;;;;;;;;5059171;28;20158;-61
2023/07/27 13:11:30;;;;;;;2.97;1.50;;;;;;;;;;5060237;28;20246;-61
2023/07/27 13:13:56;;;;;;;3.28;1.15;;;;;;;;;;5060457;28;20039;-61
2023/07/27 13:16:23;;;;;;;1.20;0.85;;;;;;;;;;5059873;28;20048;-60
2023/07/27 13:18:49;;;;;;;2.35;1.17;;;;;;;;;;5059823;28;20522;-61
2023/07/27 13:21:15;;;;;;;1.33;0.98;;;;;;;;;;5059331;28;20730;-60
2023/07/27 13:23:41;;;;;;;1.48;0.88;;;;;;;;;;5058605;28;20037;-60
2023/07/27 13:26:08;;;;;;;3.03;0.95;;;;;;;;;;5059996;28;20028;-61
2023/07/27 13:28:35;;;;;;;2.50;1.20;;;;;;;;;;5060240;28;20033;-60
2023/07/27 13:31:01;;;;;;;1.95;1.30;;;;;;;;;;5059376;28;20505;-60
2023/07/27 13:33:27;;;;;;;3.75;1.35;;;;;;;;;;5059630;28;20050;-60
2023/07/27 13:35:56;;;;;;;16.58;1.98;;;;;;;;;;5059734;28;20107;-61
2023/07/27 13:38:22;;;;;;;4.85;1.60;;;;;;;;;;5058660;28;20216;-60
2023/07/27 13:40:49;;;;;;;2.72;1.52;;;;;;;;;;5059502;28;20148;-61
2023/07/27 13:43:15;;;;;;;4.82;1.75;;;;;;;;;;5058639;28;20028;-61
2023/07/27 13:45:41;;;;;;;2.60;1.50;;;;;;;;;;5058673;28;20052;-61
2023/07/27 13:48:07;;;;;;;4.03;2.33;;;;;;;;;;5060286;28;20066;-61
2023/07/27 13:50:33;;;;;;;3.47;1.77;;;;;;;;;;5059514;28;20127;-61
2023/07/27 13:52:59;;;;;;;4.47;2.10;;;;;;;;;;5058964;28;20028;-61
2023/07/27 13:55:25;;;;;;;4.78;2.15;;;;;;;;;;5059737;28;20032;-61
2023/07/27 13:57:52;;;;;;;4.68;2.35;;;;;;;;;;5058599;28;20039;-61
2023/07/27 14:00:18;;;;;;;6.10;2.20;;;;;;;;;;5057247;28;20044;-61
2023/07/27 14:02:44;;;;;;;2.72;1.83;;;;;;;;;;5057663;28;20148;-60
2023/07/27 14:05:10;;;;;;;5.55;1.50;;;;;;;;;;5055823;28;20024;-61
2023/07/27 14:07:36;;;;;;;2.45;1.38;;;;;;;;;;5058643;28;20628;-60
2023/07/27 14:10:03;;;;;;;2.38;1.30;;;;;;;;;;5057524;28;20032;-60
2023/07/27 14:12:29;;;;;;;1.48;1.05;;;;;;;;;;5058560;28;20082;-61
2023/07/27 14:14:55;;;;;;;2.28;1.20;;;;;;;;;;5058903;28;20444;-61
2023/07/27 14:17:21;;;;;;;1.52;1.00;;;;;;;;;;5059356;28;20039;-61
2023/07/27 14:19:47;;;;;;;1.52;0.93;;;;;;;;;;5059617;28;20118;-61
2023/07/27 14:22:13;;;;;;;1.63;1.13;;;;;;;;;;5058918;28;20100;-61
2023/07/27 14:24:39;;;;;;;2.78;1.35;;;;;;;;;;5039877;28;20673;-61
2023/07/27 14:27:06;;;;;;;1.00;0.88;;;;;;;;;;5059254;28;20031;-60
2023/07/27 14:29:32;;;;;;;1.13;0.77;;;;;;;;;;5038672;28;20024;-60
2023/07/27 14:31:58;;;;;;;1.25;0.60;;;;;;;;;;5058516;28;20040;-61
2023/07/27 14:34:24;;;;;;;2.95;0.70;;;;;;;;;;5058212;28;20040;-61
2023/07/27 14:36:50;;;;;;;0.90;0.70;;;;;;;;;;5059744;28;20475;-61
2023/07/27 14:39:16;;;;;;;1.35;0.70;;;;;;;;;;5058818;28;20044;-61